sensor_id;sensor_type;location;lat;lon;timestamp;pressure;altitude;pressure_sealevel;temperature;humidity
7834;BME280;3962;42.696;23.354;2023-03-15T00:00:53;94211.97;;;6.78;49.78
7834;BME280;3962;42.696;23.354;2023-03-15T00:03:21;94208.41;;;6.87;50.01
7834;BME280;3962;42.696;23.354;2023-03-15T00:05:48;94200.34;;;6.88;49.31
7834;BME280;3962;42.696;23.354;2023-03-15T00:08:16;94198.59;;;6.97;49.04
7834;BME280;3962;42.696;23.354;2023-03-15T00:10:45;94197.09;;;6.94;49.45
7834;BME280;3962;42.696;23.354;2023-03-15T00:13:14;94186.66;;;6.75;50.11
7834;BME280;3962;42.696;23.354;2023-03-15T00:15:44;94188.94;;;6.70;49.35
7834;BME280;3962;42.696;23.354;2023-03-15T00:18:12;94201.00;;;6.55;50.18
7834;BME280;3962;42.696;23.354;2023-03-15T00:20:39;94205.22;;;6.48;49.85
7834;BME280;3962;42.696;23.354;2023-03-15T00:23:05;94202.03;;;6.45;50.31
7834;BME280;3962;42.696;23.354;2023-03-15T00:25:32;94200.38;;;6.44;49.43
7834;BME280;3962;42.696;23.354;2023-03-15T00:27:59;94209.28;;;6.43;49.71
7834;BME280;3962;42.696;23.354;2023-03-15T00:30:27;94196.34;;;6.40;49.96
7834;BME280;3962;42.696;23.354;2023-03-15T00:32:54;94198.19;;;6.39;51.02
7834;BME280;3962;42.696;23.354;2023-03-15T00:35:21;94192.81;;;6.31;50.65
7834;BME280;3962;42.696;23.354;2023-03-15T00:37:49;94183.69;;;6.26;50.79
7834;BME280;3962;42.696;23.354;2023-03-15T00:40:19;94184.09;;;6.21;51.66
7834;BME280;3962;42.696;23.354;2023-03-15T00:42:46;94179.66;;;6.22;51.41
7834;BME280;3962;42.696;23.354;2023-03-15T00:45:17;94184.63;;;6.25;50.68
7834;BME280;3962;42.696;23.354;2023-03-15T00:47:47;94180.41;;;6.32;50.72
7834;BME280;3962;42.696;23.354;2023-03-15T00:50:14;94182.34;;;6.39;51.08
7834;BME280;3962;42.696;23.354;2023-03-15T00:52:41;94185.97;;;6.38;50.92
7834;BME280;3962;42.696;23.354;2023-03-15T00:55:09;94176.22;;;6.39;51.34
7834;BME280;3962;42.696;23.354;2023-03-15T00:57:38;94168.16;;;6.40;51.02
7834;BME280;3962;42.696;23.354;2023-03-15T01:00:07;94170.25;;;6.37;50.75
7834;BME280;3962;42.696;23.354;2023-03-15T01:02:35;94164.44;;;6.33;50.97
7834;BME280;3962;42.696;23.354;2023-03-15T01:05:05;94166.94;;;6.35;50.63
7834;BME280;3962;42.696;23.354;2023-03-15T01:07:32;94156.38;;;6.35;50.02
7834;BME280;3962;42.696;23.354;2023-03-15T01:09:59;94162.47;;;6.35;49.84
7834;BME280;3962;42.696;23.354;2023-03-15T01:12:27;94153.88;;;6.33;51.38
7834;BME280;3962;42.696;23.354;2023-03-15T01:14:53;94154.31;;;6.29;51.56
7834;BME280;3962;42.696;23.354;2023-03-15T01:17:20;94149.75;;;6.21;51.90
7834;BME280;3962;42.696;23.354;2023-03-15T01:19:47;94146.53;;;6.10;51.93
7834;BME280;3962;42.696;23.354;2023-03-15T01:22:17;94142.09;;;6.01;52.31
7834;BME280;3962;42.696;23.354;2023-03-15T01:24:44;94138.13;;;5.97;52.24
7834;BME280;3962;42.696;23.354;2023-03-15T01:27:11;94140.75;;;5.97;52.38
7834;BME280;3962;42.696;23.354;2023-03-15T01:29:38;94131.44;;;5.93;52.69
7834;BME280;3962;42.696;23.354;2023-03-15T01:32:05;94128.22;;;5.99;52.67
7834;BME280;3962;42.696;23.354;2023-03-15T01:34:32;94125.69;;;6.07;51.56
7834;BME280;3962;42.696;23.354;2023-03-15T01:36:59;94135.13;;;6.09;52.92
7834;BME280;3962;42.696;23.354;2023-03-15T01:39:28;94135.44;;;6.06;52.95
7834;BME280;3962;42.696;23.354;2023-03-15T01:41:55;94129.88;;;6.00;52.58
7834;BME280;3962;42.696;23.354;2023-03-15T01:44:23;94128.81;;;5.93;52.98
7834;BME280;3962;42.696;23.354;2023-03-15T01:46:49;94126.94;;;5.85;52.76
7834;BME280;3962;42.696;23.354;2023-03-15T01:49:19;94118.34;;;5.83;52.75
7834;BME280;3962;42.696;23.354;2023-03-15T01:51:51;94110.13;;;5.77;52.76
7834;BME280;3962;42.696;23.354;2023-03-15T01:54:22;94110.81;;;5.79;52.84
7834;BME280;3962;42.696;23.354;2023-03-15T01:56:55;94112.63;;;5.78;53.38
7834;BME280;3962;42.696;23.354;2023-03-15T01:59:27;94098.75;;;5.76;53.74
7834;BME280;3962;42.696;23.354;2023-03-15T02:01:55;94109.44;;;5.75;53.41
7834;BME280;3962;42.696;23.354;2023-03-15T02:04:24;94106.94;;;5.73;53.72
7834;BME280;3962;42.696;23.354;2023-03-15T02:06:54;94101.53;;;5.75;53.23
7834;BME280;3962;42.696;23.354;2023-03-15T02:09:26;94094.84;;;5.80;53.71
7834;BME280;3962;42.696;23.354;2023-03-15T02:11:58;94082.22;;;5.74;53.41
7834;BME280;3962;42.696;23.354;2023-03-15T02:14:25;94084.28;;;5.80;53.94
7834;BME280;3962;42.696;23.354;2023-03-15T02:16:53;94080.00;;;5.79;53.00
7834;BME280;3962;42.696;23.354;2023-03-15T02:19:33;94077.91;;;5.73;53.29
7834;BME280;3962;42.696;23.354;2023-03-15T02:22:13;94074.72;;;5.70;53.36
7834;BME280;3962;42.696;23.354;2023-03-15T02:24:49;94068.91;;;5.66;52.79
7834;BME280;3962;42.696;23.354;2023-03-15T02:27:25;94069.00;;;5.57;53.65
7834;BME280;3962;42.696;23.354;2023-03-15T02:29:52;94069.28;;;5.54;54.05
7834;BME280;3962;42.696;23.354;2023-03-15T02:32:19;94069.44;;;5.52;53.87
7834;BME280;3962;42.696;23.354;2023-03-15T02:34:46;94061.34;;;5.54;54.41
7834;BME280;3962;42.696;23.354;2023-03-15T02:37:12;94063.19;;;5.53;54.13
7834;BME280;3962;42.696;23.354;2023-03-15T02:39:39;94069.72;;;5.49;54.34
7834;BME280;3962;42.696;23.354;2023-03-15T02:42:06;94069.56;;;5.51;54.82
7834;BME280;3962;42.696;23.354;2023-03-15T02:44:36;94071.22;;;5.52;54.60
7834;BME280;3962;42.696;23.354;2023-03-15T02:47:05;94071.88;;;5.63;53.95
7834;BME280;3962;42.696;23.354;2023-03-15T02:49:36;94082.81;;;5.68;53.15
7834;BME280;3962;42.696;23.354;2023-03-15T02:52:05;94066.59;;;5.63;52.94
7834;BME280;3962;42.696;23.354;2023-03-15T02:54:32;94058.53;;;5.65;53.10
7834;BME280;3962;42.696;23.354;2023-03-15T02:56:59;94053.09;;;5.66;53.27
7834;BME280;3962;42.696;23.354;2023-03-15T02:59:26;94056.16;;;5.62;52.97
7834;BME280;3962;42.696;23.354;2023-03-15T03:01:54;94048.69;;;5.57;52.55
7834;BME280;3962;42.696;23.354;2023-03-15T03:04:21;94049.16;;;5.53;52.59
7834;BME280;3962;42.696;23.354;2023-03-15T03:06:48;94047.22;;;5.55;53.52
7834;BME280;3962;42.696;23.354;2023-03-15T03:09:14;94042.06;;;5.53;53.23
7834;BME280;3962;42.696;23.354;2023-03-15T03:11:41;94050.97;;;5.52;52.57
7834;BME280;3962;42.696;23.354;2023-03-15T03:14:08;94041.69;;;5.48;53.34
7834;BME280;3962;42.696;23.354;2023-03-15T03:16:38;94040.59;;;5.41;53.77
7834;BME280;3962;42.696;23.354;2023-03-15T03:19:07;94032.88;;;5.30;53.67
7834;BME280;3962;42.696;23.354;2023-03-15T03:21:34;94030.59;;;5.18;53.98
7834;BME280;3962;42.696;23.354;2023-03-15T03:24:01;94029.16;;;5.23;54.72
7834;BME280;3962;42.696;23.354;2023-03-15T03:26:27;94029.63;;;5.19;54.48
7834;BME280;3962;42.696;23.354;2023-03-15T03:28:57;94031.41;;;5.18;54.41
7834;BME280;3962;42.696;23.354;2023-03-15T03:31:25;94036.78;;;5.26;54.20
7834;BME280;3962;42.696;23.354;2023-03-15T03:33:54;94023.06;;;5.23;55.49
7834;BME280;3962;42.696;23.354;2023-03-15T03:36:22;94016.84;;;5.24;54.32
7834;BME280;3962;42.696;23.354;2023-03-15T03:38:50;94022.66;;;5.27;54.26
7834;BME280;3962;42.696;23.354;2023-03-15T03:41:18;94014.00;;;5.35;54.32
7834;BME280;3962;42.696;23.354;2023-03-15T03:43:46;94008.28;;;5.39;54.48
7834;BME280;3962;42.696;23.354;2023-03-15T03:46:13;94008.91;;;5.51;53.68
7834;BME280;3962;42.696;23.354;2023-03-15T03:48:40;94005.81;;;5.55;54.07
7834;BME280;3962;42.696;23.354;2023-03-15T03:51:06;94013.72;;;5.55;54.74
7834;BME280;3962;42.696;23.354;2023-03-15T03:53:35;94005.81;;;5.55;54.07
7834;BME280;3962;42.696;23.354;2023-03-15T03:56:03;94008.31;;;5.57;53.82
7834;BME280;3962;42.696;23.354;2023-03-15T03:58:30;94000.22;;;5.58;53.39
7834;BME280;3962;42.696;23.354;2023-03-15T04:00:57;94002.38;;;5.55;54.30
7834;BME280;3962;42.696;23.354;2023-03-15T04:03:24;93994.81;;;5.60;54.23
7834;BME280;3962;42.696;23.354;2023-03-15T04:05:52;93996.34;;;5.62;53.57
7834;BME280;3962;42.696;23.354;2023-03-15T04:08:19;93986.97;;;5.68;54.45
7834;BME280;3962;42.696;23.354;2023-03-15T04:10:50;93991.81;;;5.72;54.39
7834;BME280;3962;42.696;23.354;2023-03-15T04:13:18;93987.97;;;5.67;54.64
7834;BME280;3962;42.696;23.354;2023-03-15T04:15:45;93991.06;;;5.62;54.91
7834;BME280;3962;42.696;23.354;2023-03-15T04:18:12;93985.03;;;5.52;54.93
7834;BME280;3962;42.696;23.354;2023-03-15T04:20:40;93984.44;;;5.31;55.50
7834;BME280;3962;42.696;23.354;2023-03-15T04:23:11;93981.94;;;5.30;55.81
7834;BME280;3962;42.696;23.354;2023-03-15T04:25:38;93985.88;;;5.26;55.92
7834;BME280;3962;42.696;23.354;2023-03-15T04:28:06;93987.53;;;5.27;56.41
7834;BME280;3962;42.696;23.354;2023-03-15T04:30:35;93988.88;;;5.31;56.87
7834;BME280;3962;42.696;23.354;2023-03-15T04:33:03;93985.81;;;5.35;56.44
7834;BME280;3962;42.696;23.354;2023-03-15T04:35:32;93980.25;;;5.38;56.00
7834;BME280;3962;42.696;23.354;2023-03-15T04:37:59;93974.38;;;5.44;56.85
7834;BME280;3962;42.696;23.354;2023-03-15T04:40:27;93981.34;;;5.36;56.43
7834;BME280;3962;42.696;23.354;2023-03-15T04:42:54;93976.09;;;5.36;56.41
7834;BME280;3962;42.696;23.354;2023-03-15T04:45:23;93983.69;;;5.39;56.56
7834;BME280;3962;42.696;23.354;2023-03-15T04:47:51;93983.41;;;5.42;56.28
7834;BME280;3962;42.696;23.354;2023-03-15T04:50:19;93987.56;;;5.44;56.26
7834;BME280;3962;42.696;23.354;2023-03-15T04:52:47;93984.63;;;5.47;56.90
7834;BME280;3962;42.696;23.354;2023-03-15T04:55:14;93986.00;;;5.51;56.63
7834;BME280;3962;42.696;23.354;2023-03-15T04:57:41;93987.66;;;5.52;56.87
7834;BME280;3962;42.696;23.354;2023-03-15T05:00:10;93984.19;;;5.52;56.40
7834;BME280;3962;42.696;23.354;2023-03-15T05:02:39;93976.72;;;5.47;56.41
7834;BME280;3962;42.696;23.354;2023-03-15T05:05:06;93967.81;;;5.48;56.98
7834;BME280;3962;42.696;23.354;2023-03-15T05:07:34;93970.31;;;5.50;57.24
7834;BME280;3962;42.696;23.354;2023-03-15T05:10:01;93983.28;;;5.43;57.36
7834;BME280;3962;42.696;23.354;2023-03-15T05:12:29;93978.81;;;5.44;57.44
7834;BME280;3962;42.696;23.354;2023-03-15T05:14:56;93982.06;;;5.55;57.66
7834;BME280;3962;42.696;23.354;2023-03-15T05:17:23;93980.91;;;5.67;57.01
7834;BME280;3962;42.696;23.354;2023-03-15T05:19:51;93985.78;;;5.62;56.20
7834;BME280;3962;42.696;23.354;2023-03-15T05:22:18;93979.47;;;5.73;55.72
7834;BME280;3962;42.696;23.354;2023-03-15T05:24:52;93978.28;;;6.02;54.37
7834;BME280;3962;42.696;23.354;2023-03-15T05:27:23;93960.53;;;6.12;55.04
7834;BME280;3962;42.696;23.354;2023-03-15T05:29:50;93983.81;;;6.34;53.90
7834;BME280;3962;42.696;23.354;2023-03-15T05:32:17;93981.25;;;6.42;53.61
7834;BME280;3962;42.696;23.354;2023-03-15T05:34:52;93973.31;;;6.42;53.30
7834;BME280;3962;42.696;23.354;2023-03-15T05:37:20;93970.13;;;6.56;52.03
7834;BME280;3962;42.696;23.354;2023-03-15T05:39:47;93961.75;;;6.43;51.95
7834;BME280;3962;42.696;23.354;2023-03-15T05:42:14;93964.72;;;6.40;51.55
7834;BME280;3962;42.696;23.354;2023-03-15T05:44:46;93974.91;;;6.35;51.14
7834;BME280;3962;42.696;23.354;2023-03-15T05:47:13;93969.88;;;6.24;51.78
7834;BME280;3962;42.696;23.354;2023-03-15T05:49:40;93970.34;;;6.20;51.93
7834;BME280;3962;42.696;23.354;2023-03-15T05:52:08;93968.25;;;6.23;52.24
7834;BME280;3962;42.696;23.354;2023-03-15T05:54:35;93959.94;;;6.18;52.19
7834;BME280;3962;42.696;23.354;2023-03-15T05:57:02;93960.31;;;6.06;53.01
7834;BME280;3962;42.696;23.354;2023-03-15T05:59:29;93960.13;;;5.99;53.13
7834;BME280;3962;42.696;23.354;2023-03-15T06:01:57;93968.78;;;5.92;52.91
7834;BME280;3962;42.696;23.354;2023-03-15T06:04:24;93966.38;;;5.81;53.60
7834;BME280;3962;42.696;23.354;2023-03-15T06:06:51;93969.03;;;5.71;54.58
7834;BME280;3962;42.696;23.354;2023-03-15T06:09:19;93973.56;;;5.61;54.57
7834;BME280;3962;42.696;23.354;2023-03-15T06:11:46;93966.00;;;5.66;54.60
7834;BME280;3962;42.696;23.354;2023-03-15T06:14:12;93966.53;;;5.70;55.14
7834;BME280;3962;42.696;23.354;2023-03-15T06:16:39;93958.72;;;5.60;56.18
7834;BME280;3962;42.696;23.354;2023-03-15T06:19:06;93952.69;;;5.68;56.37
7834;BME280;3962;42.696;23.354;2023-03-15T06:21:33;93963.59;;;5.82;55.45
7834;BME280;3962;42.696;23.354;2023-03-15T06:24:00;93969.91;;;5.89;54.61
7834;BME280;3962;42.696;23.354;2023-03-15T06:26:28;93975.25;;;5.97;55.84
7834;BME280;3962;42.696;23.354;2023-03-15T06:28:55;93974.06;;;6.09;55.66
7834;BME280;3962;42.696;23.354;2023-03-15T06:31:22;93973.72;;;6.30;54.87
7834;BME280;3962;42.696;23.354;2023-03-15T06:33:48;93965.53;;;6.41;55.80
7834;BME280;3962;42.696;23.354;2023-03-15T06:36:15;93961.22;;;6.57;54.92
7834;BME280;3962;42.696;23.354;2023-03-15T06:38:42;93951.69;;;6.64;55.16
7834;BME280;3962;42.696;23.354;2023-03-15T06:41:09;93944.63;;;6.73;54.44
7834;BME280;3962;42.696;23.354;2023-03-15T06:43:41;93977.97;;;6.99;54.12
7834;BME280;3962;42.696;23.354;2023-03-15T06:46:08;93973.75;;;7.14;53.28
7834;BME280;3962;42.696;23.354;2023-03-15T06:48:35;93954.31;;;7.31;53.28
7834;BME280;3962;42.696;23.354;2023-03-15T06:51:02;93948.75;;;7.42;52.77
7834;BME280;3962;42.696;23.354;2023-03-15T06:53:30;93941.16;;;7.55;52.62
7834;BME280;3962;42.696;23.354;2023-03-15T06:55:58;93960.66;;;7.54;52.85
7834;BME280;3962;42.696;23.354;2023-03-15T06:58:25;93969.44;;;7.54;52.87
7834;BME280;3962;42.696;23.354;2023-03-15T07:00:54;93958.88;;;7.54;52.54
7834;BME280;3962;42.696;23.354;2023-03-15T07:03:28;93955.22;;;7.55;52.91
7834;BME280;3962;42.696;23.354;2023-03-15T07:05:59;93948.78;;;7.58;53.97
7834;BME280;3962;42.696;23.354;2023-03-15T07:08:34;93948.75;;;7.42;53.76
7834;BME280;3962;42.696;23.354;2023-03-15T07:11:01;93957.94;;;7.30;53.49
7834;BME280;3962;42.696;23.354;2023-03-15T07:13:28;93950.69;;;7.32;53.51
7834;BME280;3962;42.696;23.354;2023-03-15T07:15:56;93944.94;;;7.36;52.94
7834;BME280;3962;42.696;23.354;2023-03-15T07:18:23;93945.44;;;7.40;52.97
7834;BME280;3962;42.696;23.354;2023-03-15T07:20:55;93942.63;;;7.49;53.02
7834;BME280;3962;42.696;23.354;2023-03-15T07:23:22;93939.38;;;7.71;52.82
7834;BME280;3962;42.696;23.354;2023-03-15T07:25:48;93948.88;;;8.06;53.07
7834;BME280;3962;42.696;23.354;2023-03-15T07:28:15;93959.34;;;8.31;51.15
7834;BME280;3962;42.696;23.354;2023-03-15T07:30:52;93948.75;;;8.47;50.95
7834;BME280;3962;42.696;23.354;2023-03-15T07:33:20;93948.88;;;8.54;51.16
7834;BME280;3962;42.696;23.354;2023-03-15T07:35:48;93952.53;;;8.53;51.61
7834;BME280;3962;42.696;23.354;2023-03-15T07:38:15;93943.22;;;8.65;51.38
7834;BME280;3962;42.696;23.354;2023-03-15T07:40:42;93944.41;;;8.78;50.37
7834;BME280;3962;42.696;23.354;2023-03-15T07:43:09;93948.13;;;9.08;50.22
7834;BME280;3962;42.696;23.354;2023-03-15T07:45:36;93957.72;;;9.17;50.12
7834;BME280;3962;42.696;23.354;2023-03-15T07:48:03;93951.72;;;9.61;49.14
7834;BME280;3962;42.696;23.354;2023-03-15T07:50:31;93938.88;;;9.73;48.67
7834;BME280;3962;42.696;23.354;2023-03-15T07:52:58;93948.22;;;9.91;48.51
7834;BME280;3962;42.696;23.354;2023-03-15T07:55:25;93944.25;;;9.95;48.49
7834;BME280;3962;42.696;23.354;2023-03-15T07:57:54;93937.97;;;9.88;48.79
7834;BME280;3962;42.696;23.354;2023-03-15T08:00:21;93939.03;;;9.71;48.73
7834;BME280;3962;42.696;23.354;2023-03-15T08:02:48;93935.88;;;9.76;48.75
7834;BME280;3962;42.696;23.354;2023-03-15T08:05:15;93929.94;;;10.04;48.29
7834;BME280;3962;42.696;23.354;2023-03-15T08:07:46;93931.94;;;10.25;47.92
7834;BME280;3962;42.696;23.354;2023-03-15T08:10:14;93912.91;;;10.50;47.33
7834;BME280;3962;42.696;23.354;2023-03-15T08:12:41;93918.69;;;10.76;47.12
7834;BME280;3962;42.696;23.354;2023-03-15T08:15:09;93919.72;;;11.18;45.22
7834;BME280;3962;42.696;23.354;2023-03-15T08:17:37;93909.63;;;11.28;45.05
7834;BME280;3962;42.696;23.354;2023-03-15T08:20:04;93905.13;;;11.14;46.06
7834;BME280;3962;42.696;23.354;2023-03-15T08:22:36;93891.50;;;11.53;45.34
7834;BME280;3962;42.696;23.354;2023-03-15T08:25:05;93897.88;;;12.71;42.90
7834;BME280;3962;42.696;23.354;2023-03-15T08:27:32;93897.56;;;13.89;40.96
7834;BME280;3962;42.696;23.354;2023-03-15T08:29:58;93899.59;;;14.54;39.54
7834;BME280;3962;42.696;23.354;2023-03-15T08:32:25;93907.41;;;14.42;38.98
7834;BME280;3962;42.696;23.354;2023-03-15T08:34:52;93896.31;;;14.84;39.69
7834;BME280;3962;42.696;23.354;2023-03-15T08:37:19;93897.53;;;15.01;37.98
7834;BME280;3962;42.696;23.354;2023-03-15T08:39:46;93910.69;;;14.44;38.37
7834;BME280;3962;42.696;23.354;2023-03-15T08:42:14;93901.84;;;13.77;39.09
7834;BME280;3962;42.696;23.354;2023-03-15T08:44:41;93900.34;;;13.68;39.21
7834;BME280;3962;42.696;23.354;2023-03-15T08:47:08;93903.09;;;13.88;38.71
7834;BME280;3962;42.696;23.354;2023-03-15T08:49:34;93902.69;;;14.44;38.60
7834;BME280;3962;42.696;23.354;2023-03-15T08:52:01;93895.09;;;14.86;38.01
7834;BME280;3962;42.696;23.354;2023-03-15T08:54:28;93898.47;;;14.16;38.51
7834;BME280;3962;42.696;23.354;2023-03-15T08:56:56;93900.84;;;13.91;39.53
7834;BME280;3962;42.696;23.354;2023-03-15T08:59:24;93909.63;;;13.04;40.56
7834;BME280;3962;42.696;23.354;2023-03-15T09:01:50;93900.06;;;12.40;41.70
7834;BME280;3962;42.696;23.354;2023-03-15T09:04:18;93907.50;;;12.03;42.96
7834;BME280;3962;42.696;23.354;2023-03-15T09:06:46;93901.59;;;12.28;42.97
7834;BME280;3962;42.696;23.354;2023-03-15T09:09:13;93905.28;;;12.76;42.19
7834;BME280;3962;42.696;23.354;2023-03-15T09:11:41;93906.22;;;13.17;41.26
7834;BME280;3962;42.696;23.354;2023-03-15T09:14:08;93912.13;;;13.06;41.24
7834;BME280;3962;42.696;23.354;2023-03-15T09:16:36;93904.84;;;12.72;41.79
7834;BME280;3962;42.696;23.354;2023-03-15T09:19:03;93904.59;;;12.40;42.61
7834;BME280;3962;42.696;23.354;2023-03-15T09:21:30;93898.63;;;12.17;42.68
7834;BME280;3962;42.696;23.354;2023-03-15T09:23:57;93908.19;;;12.11;43.07
7834;BME280;3962;42.696;23.354;2023-03-15T09:26:23;93907.81;;;12.14;43.04
7834;BME280;3962;42.696;23.354;2023-03-15T09:28:50;93901.81;;;11.91;43.94
7834;BME280;3962;42.696;23.354;2023-03-15T09:31:17;93900.75;;;11.86;43.65
7834;BME280;3962;42.696;23.354;2023-03-15T09:33:45;93903.66;;;11.91;44.27
7834;BME280;3962;42.696;23.354;2023-03-15T09:36:12;93901.25;;;11.96;43.88
7834;BME280;3962;42.696;23.354;2023-03-15T09:38:41;93898.25;;;11.84;44.13
7834;BME280;3962;42.696;23.354;2023-03-15T09:41:16;93897.91;;;12.08;43.54
7834;BME280;3962;42.696;23.354;2023-03-15T09:43:58;93889.22;;;12.42;43.52
7834;BME280;3962;42.696;23.354;2023-03-15T09:46:28;93879.91;;;12.86;42.21
7834;BME280;3962;42.696;23.354;2023-03-15T09:49:03;93875.28;;;12.67;42.22
7834;BME280;3962;42.696;23.354;2023-03-15T09:51:37;93879.34;;;12.42;42.99
7834;BME280;3962;42.696;23.354;2023-03-15T09:54:09;93878.09;;;12.38;42.77
7834;BME280;3962;42.696;23.354;2023-03-15T09:56:39;93865.31;;;12.55;42.62
7834;BME280;3962;42.696;23.354;2023-03-15T09:59:10;93864.66;;;12.53;42.17
7834;BME280;3962;42.696;23.354;2023-03-15T10:01:39;93862.13;;;12.45;43.22
7834;BME280;3962;42.696;23.354;2023-03-15T10:04:11;93868.56;;;12.08;43.63
7834;BME280;3962;42.696;23.354;2023-03-15T10:06:42;93872.38;;;11.99;43.65
7834;BME280;3962;42.696;23.354;2023-03-15T10:09:15;93873.59;;;12.18;43.71
7834;BME280;3962;42.696;23.354;2023-03-15T10:11:48;93872.72;;;12.32;42.94
7834;BME280;3962;42.696;23.354;2023-03-15T10:14:28;93881.22;;;12.21;43.21
7834;BME280;3962;42.696;23.354;2023-03-15T10:17:04;93880.44;;;12.27;43.62
7834;BME280;3962;42.696;23.354;2023-03-15T10:19:42;93875.34;;;12.53;42.87
7834;BME280;3962;42.696;23.354;2023-03-15T10:22:20;93872.22;;;12.98;42.58
7834;BME280;3962;42.696;23.354;2023-03-15T10:24:51;93875.47;;;13.27;41.96
7834;BME280;3962;42.696;23.354;2023-03-15T10:27:21;93863.22;;;13.39;41.21
7834;BME280;3962;42.696;23.354;2023-03-15T10:29:52;93866.06;;;13.31;40.92
7834;BME280;3962;42.696;23.354;2023-03-15T10:32:23;93859.75;;;12.77;42.22
7834;BME280;3962;42.696;23.354;2023-03-15T10:34:55;93848.03;;;12.51;42.32
7834;BME280;3962;42.696;23.354;2023-03-15T10:37:23;93849.56;;;12.39;43.31
7834;BME280;3962;42.696;23.354;2023-03-15T10:39:54;93858.53;;;12.31;43.31
7834;BME280;3962;42.696;23.354;2023-03-15T10:42:27;93871.28;;;12.15;43.50
7834;BME280;3962;42.696;23.354;2023-03-15T10:44:54;93876.50;;;12.23;43.64
7834;BME280;3962;42.696;23.354;2023-03-15T10:47:23;93862.97;;;12.24;43.27
7834;BME280;3962;42.696;23.354;2023-03-15T10:49:56;93854.34;;;12.22;43.69
7834;BME280;3962;42.696;23.354;2023-03-15T10:52:31;93856.44;;;12.27;43.06
7834;BME280;3962;42.696;23.354;2023-03-15T10:55:00;93848.19;;;12.43;42.53
7834;BME280;3962;42.696;23.354;2023-03-15T10:57:36;93857.47;;;12.47;43.37
7834;BME280;3962;42.696;23.354;2023-03-15T11:00:17;93863.50;;;12.62;42.93
7834;BME280;3962;42.696;23.354;2023-03-15T11:02:49;93861.06;;;12.60;42.77
7834;BME280;3962;42.696;23.354;2023-03-15T11:05:18;93862.34;;;12.43;42.83
7834;BME280;3962;42.696;23.354;2023-03-15T11:07:53;93853.06;;;12.39;42.69
7834;BME280;3962;42.696;23.354;2023-03-15T11:10:22;93850.00;;;12.42;42.99
7834;BME280;3962;42.696;23.354;2023-03-15T11:12:49;93843.41;;;12.38;42.95
7834;BME280;3962;42.696;23.354;2023-03-15T11:15:34;93848.19;;;12.43;42.82
7834;BME280;3962;42.696;23.354;2023-03-15T11:18:00;93848.56;;;12.40;43.12
7834;BME280;3962;42.696;23.354;2023-03-15T11:20:31;93836.59;;;12.57;42.59
7834;BME280;3962;42.696;23.354;2023-03-15T11:23:12;93840.06;;;12.57;42.93
7834;BME280;3962;42.696;23.354;2023-03-15T11:25:39;93847.72;;;12.60;42.67
7834;BME280;3962;42.696;23.354;2023-03-15T11:28:14;93843.91;;;12.76;43.41
7834;BME280;3962;42.696;23.354;2023-03-15T11:30:42;93840.28;;;12.83;42.56
7834;BME280;3962;42.696;23.354;2023-03-15T11:33:23;93847.00;;;12.79;42.52
7834;BME280;3962;42.696;23.354;2023-03-15T11:35:58;93842.28;;;12.81;42.91
7834;BME280;3962;42.696;23.354;2023-03-15T11:38:32;93836.34;;;12.79;42.58
7834;BME280;3962;42.696;23.354;2023-03-15T11:41:04;93828.16;;;12.81;42.47
7834;BME280;3962;42.696;23.354;2023-03-15T11:43:45;93823.44;;;12.83;43.02
7834;BME280;3962;42.696;23.354;2023-03-15T11:46:18;93826.00;;;12.70;42.88
7834;BME280;3962;42.696;23.354;2023-03-15T11:48:50;93838.56;;;12.76;42.68
7834;BME280;3962;42.696;23.354;2023-03-15T11:51:20;93830.69;;;12.61;42.75
7834;BME280;3962;42.696;23.354;2023-03-15T11:53:53;93827.59;;;12.92;42.94
7834;BME280;3962;42.696;23.354;2023-03-15T11:56:25;93822.59;;;13.10;41.99
7834;BME280;3962;42.696;23.354;2023-03-15T11:59:04;93828.84;;;13.23;42.38
7834;BME280;3962;42.696;23.354;2023-03-15T12:01:34;93818.25;;;13.43;41.76
7834;BME280;3962;42.696;23.354;2023-03-15T12:04:27;93827.75;;;13.58;42.23
7834;BME280;3962;42.696;23.354;2023-03-15T12:06:57;93818.19;;;13.30;41.59
7834;BME280;3962;42.696;23.354;2023-03-15T12:09:47;93821.41;;;13.19;42.41
7834;BME280;3962;42.696;23.354;2023-03-15T12:12:36;93807.69;;;13.28;42.13
7834;BME280;3962;42.696;23.354;2023-03-15T12:17:57;93806.28;;;13.32;42.29
7834;BME280;3962;42.696;23.354;2023-03-15T12:20:31;93795.75;;;13.18;42.23
7834;BME280;3962;42.696;23.354;2023-03-15T12:23:20;93788.47;;;13.05;42.21
7834;BME280;3962;42.696;23.354;2023-03-15T12:25:52;93792.38;;;13.03;42.16
7834;BME280;3962;42.696;23.354;2023-03-15T12:28:22;93796.63;;;12.97;42.42
7834;BME280;3962;42.696;23.354;2023-03-15T12:30:54;93801.41;;;12.74;44.00
7834;BME280;3962;42.696;23.354;2023-03-15T12:33:24;93790.19;;;12.51;45.22
7834;BME280;3962;42.696;23.354;2023-03-15T12:35:58;93789.91;;;12.40;47.23
7834;BME280;3962;42.696;23.354;2023-03-15T12:38:34;93787.00;;;12.41;47.47
7834;BME280;3962;42.696;23.354;2023-03-15T12:41:06;93791.47;;;12.34;48.52
7834;BME280;3962;42.696;23.354;2023-03-15T12:43:34;93792.50;;;12.33;48.01
7834;BME280;3962;42.696;23.354;2023-03-15T12:46:01;93797.16;;;12.25;48.58
7834;BME280;3962;42.696;23.354;2023-03-15T12:48:29;93789.34;;;12.02;49.58
7834;BME280;3962;42.696;23.354;2023-03-15T12:53:59;93779.50;;;11.96;49.83
7834;BME280;3962;42.696;23.354;2023-03-15T12:56:40;93791.34;;;11.73;50.26
7834;BME280;3962;42.696;23.354;2023-03-15T12:59:16;93788.59;;;11.87;50.80
7834;BME280;3962;42.696;23.354;2023-03-15T13:01:46;93787.22;;;11.91;51.08
7834;BME280;3962;42.696;23.354;2023-03-15T13:04:13;93787.47;;;11.96;50.47
7834;BME280;3962;42.696;23.354;2023-03-15T13:06:48;93788.81;;;11.86;51.76
7834;BME280;3962;42.696;23.354;2023-03-15T13:09:32;93794.28;;;11.78;51.43
7834;BME280;3962;42.696;23.354;2023-03-15T13:12:08;93785.00;;;11.74;51.39
7834;BME280;3962;42.696;23.354;2023-03-15T13:14:41;93775.19;;;11.74;51.22
7834;BME280;3962;42.696;23.354;2023-03-15T13:17:17;93772.28;;;11.97;50.20
7834;BME280;3962;42.696;23.354;2023-03-15T13:19:53;93782.53;;;12.21;49.92
7834;BME280;3962;42.696;23.354;2023-03-15T13:22:28;93785.78;;;12.37;49.19
7834;BME280;3962;42.696;23.354;2023-03-15T13:25:03;93776.13;;;12.36;48.26
7834;BME280;3962;42.696;23.354;2023-03-15T13:27:44;93788.81;;;12.34;48.57
7834;BME280;3962;42.696;23.354;2023-03-15T13:30:29;93779.53;;;12.58;48.38
7834;BME280;3962;42.696;23.354;2023-03-15T13:33:03;93791.53;;;12.68;47.95
7834;BME280;3962;42.696;23.354;2023-03-15T13:35:30;93790.69;;;12.68;47.85